Shorewood Hills, Wisconsin
Current Conditions -  °F | °C
As of 2:55 PM on Thursday 27 Nov 2014 (Local Time) from KC29 Reporting Station
Clear Clear  
Wind Chill:   Ceiling: Unl
Heat Index: 19°   Visibility: 10mi
Dew Point:   Wind: 8mph
Humidity: 63%   Direction: 320°NW
Pressure: 30.37"   Gusts: NA
Location:  43.0738°N, 89.4589°W
Report Text: KC29 272055Z AUTO 32007KT 10SM CLR M07/M13 A3037 RMK AO1 T10751135
Loading
Personal Weather Stations






























Interactive Weather Map New forecast layout! Learn more

10-Day Weather Forecast

Advertisements
Track Severe Weather on mobile